x

South Moresby (46147) Wave Buoy

5:00am - Sun 25th Sep 2016 All times are PDT. -7 hours from GMT.

  • Sig Wave height 10.5ft
  • Peak Period 10s
  • Wind
    13mph, 18mph gusts
  • Sea Temp 56°f
  • Air Temp 57°f
  • Sea Pressure 1016.3mb
  • South Moresby
  • South Moresby

More Historic Weather Station data

Upgrade to MSW Pro to gain access to the past 30 days of data for over 8000 Wavebouys and Weather Stations around the globe.

Join Pro

Comparision Forecast

View Surf forecast
   
Sun 09/25 5:00am 10.5ft 10s 13 18 mph 1016.3mb 56f 57f
4:00am 11ft 10s 18 22 mph 1015.7mb 56f 57f
3:00am 11ft 10s 22 27 mph 1014.1mb 56f 58f
2:00am 13ft 11s 18 20 mph 1012.7mb 57f 57f
1:00am 12ft 10s 16 20 mph 1011.9mb 57f 58f
12:00am  -   -  20
mph
1011.4mb - 58f
Sat 09/24 11:00pm 13ft 10s 20 22 mph 1010.9mb 56f 58f
10:00pm 14.5ft 10s 20 27 mph 1010.3mb 56f 58f
9:00pm 15.5ft 9s 20 22 mph 1010.4mb 56f 58f
8:00pm 15.5ft 9s 25 34 mph 1009.9mb 56f 57f
7:00pm  -   -  34
mph
1009.8mb - 56f
6:00pm 11ft 7s 31 40 mph 1010.9mb 56f 56f
5:00pm 9.5ft 10s 31 38 mph 1012.8mb 56f 55f
4:00pm 9.5ft 10s 31 38 mph 1014.1mb 56f 54f
3:00pm 8.5ft 10s 31 43 mph 1016.1mb 56f 54f
2:00pm 8.5ft 10s 27 31 mph 1018.1mb 56f 53f
1:00pm 8ft 10s 25 29 mph 1018.3mb 56f 54f
12:00pm 8ft 10s 25 29 mph 1018.6mb 55f 56f
11:00am 7.5ft 10s 20 27 mph 1019.5mb 55f 57f
10:00am 8ft 11s 27 31 mph 1019.5mb 56f 56f
9:00am 8ft 11s 13 18 mph 1020mb 56f 57f
8:00am 7.5ft 11s 16 20 mph 1020mb 56f 57f
7:00am 7ft 10s 13 18 mph 1020.4mb 56f 57f
6:00am 8ft 11s 13 16 mph 1021.1mb 56f 57f
5:00am 8ft 8s 11 13 mph 1020.7mb 56f 57f
4:00am 9.5ft 11s 9 11 mph 1021.4mb 56f 57f
3:00am 10ft 11s 9 11 mph 1021.3mb 56f 57f
2:00am 10ft 11s 9 11 mph 1021.5mb 56f 57f
1:00am 10ft 11s 7 9 mph 1021mb 56f 57f
12:00am 10ft 11s 4 9 mph 1020.6mb 56f 57f
Fri 09/23 11:00pm 9ft 12s 7 9 mph 1020.3mb 56f 57f
10:00pm 9ft 11s 7 9 mph 1019.3mb 56f 57f
9:00pm 9.5ft 11s 7 9 mph 1018.9mb 57f 57f
8:00pm 10ft 12s 7 11 mph 1018.3mb 57f 57f
7:00pm 9.5ft 12s 9 13 mph 1017.9mb 57f 58f
6:00pm 9ft 12s 9 13 mph 1017.2mb 57f 58f
5:00pm 9ft 12s 9 11 mph 1016.7mb 57f 58f
4:00pm 9ft 13s 9 11 mph 1016.2mb 57f 58f
3:00pm 10ft 12s 11 13 mph 1015.8mb 57f 57f
2:00pm 10ft 10s 9 11 mph 1015.3mb 56f 58f
1:00pm 10ft 12s 9 11 mph 1014.7mb 56f 57f
12:00pm 10.5ft 12s 7 9 mph 1014.2mb 56f 57f
11:00am 11ft 11s 9 11 mph 1013.3mb 56f 57f
10:00am 12ft 10s 9 11 mph 1012.3mb 55f 57f
9:00am 13ft 8s 9 13 mph 1011.3mb 54f 57f
8:00am 13.5ft 10s 11 16 mph 1010.5mb 54f 56f
7:00am 14.5ft 11s 13 16 mph 1010mb 55f 57f
6:00am 14.5ft 11s 16 20 mph 1009mb 55f 57f
5:00am 15ft 10s 18 25 mph 1007.9mb 56f 57f
4:00am 13.5ft 12s 18 22 mph 1006.9mb 56f 57f
3:00am 14ft 12s 18 25 mph 1006.2mb 56f 57f
2:00am 13ft 12s 18 25 mph 1005.5mb 56f 57f
1:00am 12ft 12s 16 20 mph 1004.7mb 56f 57f
12:00am 12ft 10s 18 22 mph 1003.8mb 57f 58f
Thu 09/22 11:00pm 13.5ft 13s 22 31 mph 1002.8mb 57f 57f
10:00pm 15ft 12s 18 25 mph 1001.8mb 57f 58f
9:00pm 15ft 8s 9 16 mph 1001mb 57f 58f
8:00pm 15.5ft 12s 13 20 mph 999.5mb 57f 58f
7:00pm 17ft 8s 25 31 mph 999.2mb 57f 60f
6:00pm 15.5ft 11s 34 43 mph 998.7mb 57f 58f
5:00pm 15.5ft 12s 34 43 mph 999.8mb 57f 58f
4:00pm 13.5ft 12s 36 45 mph 1001.4mb 57f 58f
3:00pm 13.5ft 11s 34 40 mph 1003.2mb 57f 57f
2:00pm 13ft 9s 34 43 mph 1004.8mb 56f 57f
1:00pm 11.5ft 8s 31 38 mph 1006mb 56f 57f
12:00pm 9ft 9s 31 38 mph 1007mb 57f 57f
11:00am 8ft 7s 29 36 mph 1007.9mb 58f 58f
10:00am 7ft 8s 27 34 mph 1009mb 58f 58f
9:00am 6ft 8s 25 29 mph 1010mb 58f 58f
8:00am 4.5ft 8s 25 29 mph 1010.5mb 58f 58f
7:00am 4ft 12s 22 27 mph 1011.1mb 57f 57f
6:00am 3.5ft 12s 18 22 mph 1012.5mb 57f 57f
5:00am 3ft 12s 18 22 mph 1012.7mb 57f 57f
4:00am 2.5ft 14s 16 18 mph 1013.7mb 57f 57f
3:00am 2.5ft 14s 13 16 mph 1014.8mb 57f 57f
2:00am 2.5ft 8s 13 16 mph 1015.7mb 57f 57f
1:00am 3.5ft 8s 11 13 mph 1016.2mb 58f 57f
12:00am 3.5ft 8s 11 13 mph 1016.9mb 58f 57f
Wed 09/21 11:00pm 3.5ft 8s 7 9 mph 1017.4mb 58f 57f
10:00pm 3.5ft 8s 2 4 mph 1017.6mb 58f 57f
9:00pm 3.5ft 8s 7 9 mph 1018.5mb 57f 57f
8:00pm 3.5ft 8s 7 9 mph 1018.7mb 57f 57f
7:00pm 3.5ft 8s 4 7 mph 1018.9mb 56f 57f
6:00pm 3.5ft 9s 7 9 mph 1019.8mb 58f 58f
5:00pm 3.5ft 8s 9
mph
1020.6mb 58f 58f
4:00pm 3.5ft 8s 7 9 mph 1021.7mb 59f 58f
3:00pm 3.5ft 9s 2
mph
1022.5mb 60f 58f
2:00pm 4ft 8s 4 7 mph 1022.7mb 58f 56f